Time;durP1;ratioP1;P1;durP2;ratioP2;P2;SDS_P1;SDS_P2;PMS_P1;PMS_P2;Temp;Humidity;BMP_temperature;BMP_pressure;BME280_temperature;BME280_humidity;BME280_pressure;Samples;Min_cycle;Max_cycle;Signal;HPM_P1;HPM_P2
2022/04/13 00:00:34;;;;;;;9.15;5.45;;;13.70;99.90;;;;;;4981440;28;20050;-72
2022/04/13 00:02:59;;;;;;;9.70;5.60;;;13.70;99.90;;;;;;4992245;28;20124;-71
2022/04/13 00:05:25;;;;;;;11.15;5.65;;;13.90;99.90;;;;;;5000622;28;20179;-71
2022/04/13 00:07:53;;;;;;;9.10;5.57;;;13.90;99.90;;;;;;5015887;28;20481;-72
2022/04/13 00:10:18;;;;;;;9.07;5.30;;;13.80;99.90;;;;;;4998905;28;20489;-71
2022/04/13 00:12:44;;;;;;;10.18;5.60;;;13.70;99.90;;;;;;4999844;28;20045;-70
2022/04/13 00:15:09;;;;;;;10.80;5.50;;;13.70;99.90;;;;;;5015876;28;20378;-72
2022/04/13 00:17:36;;;;;;;10.68;5.65;;;13.60;99.90;;;;;;5000562;28;20493;-71
2022/04/13 00:20:04;;;;;;;8.15;5.05;;;13.50;99.90;;;;;;5000117;28;20117;-71
2022/04/13 00:22:30;;;;;;;10.57;6.15;;;13.60;99.90;;;;;;4997197;28;20038;-72
2022/04/13 00:24:55;;;;;;;8.00;5.45;;;13.50;99.90;;;;;;4997136;28;20124;-71
2022/04/13 00:27:21;;;;;;;10.20;5.53;;;13.50;99.90;;;;;;5013721;28;20064;-71
2022/04/13 00:29:47;;;;;;;9.18;5.47;;;13.30;99.90;;;;;;5000535;28;20045;-71
2022/04/13 00:32:12;;;;;;;9.95;5.50;;;13.20;99.90;;;;;;4999208;28;20041;-72
2022/04/13 00:34:38;;;;;;;9.48;5.85;;;13.20;99.90;;;;;;5000543;28;20123;-71
2022/04/13 00:37:03;;;;;;;9.98;5.40;;;13.20;99.90;;;;;;4999129;28;20045;-70
2022/04/13 00:39:29;;;;;;;8.07;5.07;;;13.20;99.90;;;;;;5015587;28;20060;-71
2022/04/13 00:41:57;;;;;;;9.70;5.45;;;13.20;99.90;;;;;;5013756;28;20069;-70
2022/04/13 00:44:23;;;;;;;10.10;5.50;;;13.20;99.90;;;;;;5000267;28;20115;-71
2022/04/13 00:46:49;;;;;;;8.90;5.53;;;13.20;99.90;;;;;;5015166;28;20050;-71
2022/04/13 00:49:15;;;;;;;7.72;4.68;;;13.10;99.90;;;;;;5016510;28;20037;-70
2022/04/13 00:51:40;;;;;;;9.80;5.50;;;13.10;99.90;;;;;;5015069;28;20504;-72
2022/04/13 00:54:07;;;;;;;8.85;5.63;;;13.10;99.90;;;;;;4999020;28;20117;-71
2022/04/13 00:56:35;;;;;;;9.65;5.55;;;13.00;99.90;;;;;;5015106;28;20041;-72
2022/04/13 00:59:13;;;;;;;8.85;5.25;;;13.00;99.90;;;;;;5014719;28;20041;-71
2022/04/13 01:01:42;;;;;;;8.38;4.95;;;13.00;99.90;;;;;;5012278;28;20042;-71
2022/04/13 01:04:11;;;;;;;8.35;5.53;;;12.90;99.90;;;;;;5012464;28;20049;-71
2022/04/13 01:06:38;;;;;;;9.43;5.32;;;12.90;99.90;;;;;;5015790;28;20053;-72
2022/04/13 01:09:04;;;;;;;10.27;6.35;;;12.90;99.90;;;;;;5014335;28;20050;-71
2022/04/13 01:11:30;;;;;;;8.13;4.70;;;12.90;99.90;;;;;;5015602;28;20052;-72
2022/04/13 01:13:57;;;;;;;9.52;5.45;;;12.90;99.90;;;;;;4998767;28;20448;-72
2022/04/13 01:16:23;;;;;;;7.72;4.32;;;12.90;99.90;;;;;;4999295;28;20563;-72
2022/04/13 01:18:50;;;;;;;9.27;5.07;;;12.80;99.90;;;;;;4995263;28;20046;-72
2022/04/13 01:21:19;;;;;;;7.90;4.30;;;12.80;99.90;;;;;;4996347;28;20042;-72
2022/04/13 01:23:45;;;;;;;9.23;5.80;;;12.80;99.90;;;;;;4979772;28;20085;-72
2022/04/13 01:26:12;;;;;;;10.00;5.82;;;12.80;99.90;;;;;;4979740;28;20081;-72
2022/04/13 01:28:38;;;;;;;8.55;5.28;;;12.80;99.90;;;;;;5009023;28;20045;-71
2022/04/13 01:31:04;;;;;;;9.10;5.50;;;12.80;99.90;;;;;;5015607;28;20390;-71
2022/04/13 01:33:31;;;;;;;7.93;4.88;;;12.70;99.90;;;;;;5031742;28;20037;-71
2022/04/13 01:36:01;;;;;;;10.98;6.25;;;12.70;99.90;;;;;;4999160;28;20037;-71
2022/04/13 01:38:31;;;;;;;7.53;4.88;;;12.60;99.90;;;;;;5014965;28;20041;-72
2022/04/13 01:40:57;;;;;;;9.52;5.93;;;12.60;99.90;;;;;;5015534;28;20045;-71
2022/04/13 01:43:23;;;;;;;9.93;6.03;;;12.60;99.90;;;;;;4998187;28;20544;-70
2022/04/13 01:45:50;;;;;;;9.00;5.88;;;12.50;99.90;;;;;;4998974;28;20045;-71
2022/04/13 01:48:16;;;;;;;8.75;6.03;;;12.50;99.90;;;;;;4998214;28;20045;-72
2022/04/13 01:50:42;;;;;;;11.20;6.85;;;12.40;99.90;;;;;;5004235;28;20191;-72
2022/04/13 01:53:08;;;;;;;10.25;6.60;;;12.50;99.90;;;;;;5004760;28;20136;-71
2022/04/13 01:55:34;;;;;;;10.45;6.05;;;12.40;99.90;;;;;;5022271;28;20053;-72
2022/04/13 01:57:59;;;;;;;9.95;6.07;;;12.50;99.90;;;;;;5003905;28;20037;-71
2022/04/13 02:00:25;;;;;;;9.73;5.72;;;12.50;99.90;;;;;;5021875;28;20516;-72
2022/04/13 02:02:52;;;;;;;8.68;5.95;;;12.40;99.90;;;;;;5004718;28;20523;-72
2022/04/13 02:05:17;;;;;;;11.07;7.28;;;12.40;99.90;;;;;;5005498;28;20489;-71
2022/04/13 02:07:43;;;;;;;9.70;6.70;;;12.30;99.90;;;;;;5020936;28;20033;-72
2022/04/13 02:10:09;;;;;;;9.93;6.25;;;12.30;99.90;;;;;;5005553;28;20692;-72
2022/04/13 02:12:36;;;;;;;10.10;7.55;;;12.20;99.90;;;;;;5020826;28;20045;-71
2022/04/13 02:15:02;;;;;;;10.57;6.80;;;12.20;99.90;;;;;;5021971;28;20041;-71
2022/04/13 02:17:27;;;;;;;8.75;5.40;;;12.10;99.90;;;;;;5018970;28;20052;-71
2022/04/13 02:19:53;;;;;;;10.13;6.57;;;12.10;99.90;;;;;;5021798;28;20084;-72
2022/04/13 02:22:18;;;;;;;10.77;6.95;;;12.10;99.90;;;;;;5001850;28;20031;-71
2022/04/13 02:24:44;;;;;;;10.30;6.35;;;12.00;99.90;;;;;;5021203;28;20053;-71
2022/04/13 02:27:09;;;;;;;9.35;6.15;;;12.10;99.90;;;;;;4986512;28;20484;-72
2022/04/13 02:29:36;;;;;;;10.88;7.18;;;12.10;99.90;;;;;;5005007;28;20037;-72
2022/04/13 02:32:03;;;;;;;10.50;6.45;;;12.10;99.90;;;;;;5021594;28;20041;-72
2022/04/13 02:34:29;;;;;;;10.27;6.78;;;12.10;99.90;;;;;;5021749;28;20721;-71
2022/04/13 02:36:55;;;;;;;9.23;6.82;;;12.00;99.90;;;;;;5005166;28;20080;-72
2022/04/13 02:39:20;;;;;;;10.07;7.05;;;12.00;99.90;;;;;;5021539;28;20456;-71
2022/04/13 02:41:46;;;;;;;9.50;6.88;;;12.00;99.90;;;;;;5005163;28;20449;-71
2022/04/13 02:44:12;;;;;;;10.55;7.40;;;12.00;99.90;;;;;;5005014;28;20040;-71
2022/04/13 02:46:38;;;;;;;12.88;6.82;;;12.00;99.90;;;;;;5010623;28;20124;-71
2022/04/13 02:49:03;;;;;;;11.48;7.43;;;12.00;99.90;;;;;;5001786;28;20494;-71
2022/04/13 02:51:29;;;;;;;11.93;7.75;;;12.00;99.90;;;;;;4985620;28;20080;-71
2022/04/13 02:53:54;;;;;;;12.85;6.93;;;11.90;99.90;;;;;;4985512;28;20089;-72
2022/04/13 02:56:20;;;;;;;11.82;6.95;;;11.90;99.90;;;;;;5001672;28;20049;-71
2022/04/13 02:58:45;;;;;;;11.57;7.20;;;11.90;99.90;;;;;;5001703;28;20506;-71
2022/04/13 03:01:11;;;;;;;13.00;8.18;;;11.90;99.90;;;;;;4999633;28;20410;-72
2022/04/13 03:03:37;;;;;;;11.48;7.20;;;11.90;99.90;;;;;;4998621;28;20131;-71
2022/04/13 03:06:02;;;;;;;9.00;5.90;;;11.90;99.90;;;;;;4982249;28;20048;-71
2022/04/13 03:08:28;;;;;;;9.38;6.22;;;11.90;99.90;;;;;;4998483;28;20037;-71
2022/04/13 03:10:54;;;;;;;9.43;6.57;;;11.80;99.90;;;;;;4998514;28;20040;-71
2022/04/13 03:13:20;;;;;;;10.50;6.40;;;11.90;99.90;;;;;;4998621;28;20061;-71
2022/04/13 03:15:45;;;;;;;9.77;6.13;;;11.80;99.90;;;;;;4998701;28;20077;-71
2022/04/13 03:18:11;;;;;;;9.60;6.80;;;11.80;99.90;;;;;;4998323;28;20042;-71
2022/04/13 03:20:36;;;;;;;13.18;7.65;;;11.80;99.90;;;;;;4998370;28;20104;-71
2022/04/13 03:23:02;;;;;;;9.57;6.13;;;11.80;99.90;;;;;;5004412;28;20054;-72
2022/04/13 03:25:28;;;;;;;11.57;7.20;;;11.80;99.90;;;;;;4998104;28;20046;-71
2022/04/13 03:27:54;;;;;;;11.20;7.30;;;11.80;99.90;;;;;;5014415;28;20088;-71
2022/04/13 03:30:22;;;;;;;10.25;7.40;;;11.70;99.90;;;;;;4998098;28;20044;-71
2022/04/13 03:32:47;;;;;;;12.52;7.50;;;11.70;99.90;;;;;;5014469;28;20048;-71
2022/04/13 03:35:13;;;;;;;11.35;7.30;;;11.70;99.90;;;;;;4998056;28;20034;-71
2022/04/13 03:37:39;;;;;;;10.50;7.03;;;11.70;99.90;;;;;;5007186;28;20060;-71
2022/04/13 03:40:10;;;;;;;12.93;9.32;;;11.60;99.90;;;;;;5009819;28;20037;-71
2022/04/13 03:42:38;;;;;;;10.95;7.82;;;11.60;99.90;;;;;;5014277;28;20034;-71
2022/04/13 03:45:09;;;;;;;11.77;8.07;;;11.60;99.90;;;;;;5010976;28;20494;-71
2022/04/13 03:47:35;;;;;;;11.43;8.35;;;11.60;99.90;;;;;;4978372;28;20042;-72
2022/04/13 03:50:01;;;;;;;10.70;7.20;;;11.60;99.90;;;;;;4978369;28;20038;-72
2022/04/13 03:52:27;;;;;;;11.25;7.65;;;11.60;99.90;;;;;;4994506;28;20049;-71
2022/04/13 03:54:52;;;;;;;11.77;8.05;;;11.60;99.90;;;;;;4978090;28;20030;-71
2022/04/13 03:57:18;;;;;;;12.02;8.25;;;11.50;99.90;;;;;;4982246;28;20120;-71
2022/04/13 03:59:44;;;;;;;13.32;7.90;;;11.50;99.90;;;;;;4997666;28;20513;-71
2022/04/13 04:02:10;;;;;;;12.32;8.02;;;11.50;99.90;;;;;;5014088;28;20124;-71
2022/04/13 04:04:35;;;;;;;11.18;7.45;;;11.50;99.90;;;;;;5006458;28;20042;-71
2022/04/13 04:07:01;;;;;;;12.20;7.63;;;11.50;99.90;;;;;;5013538;28;20037;-71
2022/04/13 04:09:26;;;;;;;11.55;7.75;;;11.50;99.90;;;;;;4997336;28;20193;-71
2022/04/13 04:11:52;;;;;;;12.60;8.57;;;11.50;99.90;;;;;;4985800;28;20045;-71
2022/04/13 04:14:17;;;;;;;12.18;8.52;;;11.50;99.90;;;;;;4993925;28;20384;-72
2022/04/13 04:16:43;;;;;;;13.20;8.63;;;11.50;99.90;;;;;;4994291;28;20499;-72
2022/04/13 04:19:09;;;;;;;14.98;9.20;;;11.50;99.90;;;;;;4977692;28;20137;-71
2022/04/13 04:21:35;;;;;;;13.57;8.93;;;11.50;99.90;;;;;;4977794;28;20379;-72
2022/04/13 04:24:01;;;;;;;15.88;8.85;;;11.40;99.90;;;;;;5005038;28;20421;-71
2022/04/13 04:26:26;;;;;;;12.73;8.85;;;11.50;99.90;;;;;;5013360;28;20049;-71
2022/04/13 04:28:52;;;;;;;14.45;9.43;;;11.50;99.90;;;;;;4996964;28;20037;-71
2022/04/13 04:31:49;;;;;;;13.45;9.00;;;11.50;99.90;;;;;;4997309;28;20041;-71
2022/04/13 04:34:03;;;;;;;14.30;9.60;;;11.50;99.90;;;;;;5013409;28;20046;-72
2022/04/13 04:36:29;;;;;;;14.73;9.48;;;11.60;99.90;;;;;;5013506;28;20398;-71
2022/04/13 04:38:54;;;;;;;13.88;9.50;;;11.60;99.90;;;;;;5013142;28;20042;-71
2022/04/13 04:41:20;;;;;;;13.75;9.55;;;11.60;99.90;;;;;;4996850;28;20044;-71
2022/04/13 04:43:45;;;;;;;14.60;10.55;;;11.50;99.90;;;;;;4997083;28;20057;-71
2022/04/13 04:46:12;;;;;;;14.82;10.10;;;11.50;99.90;;;;;;4996793;28;20042;-72
2022/04/13 04:48:40;;;;;;;15.02;10.77;;;11.50;99.90;;;;;;5012923;28;20046;-71
2022/04/13 04:51:06;;;;;;;15.73;10.57;;;11.50;99.90;;;;;;5012894;28;20044;-72
2022/04/13 04:53:31;;;;;;;17.38;10.50;;;11.40;99.90;;;;;;4996631;28;20460;-71
2022/04/13 04:55:57;;;;;;;14.48;9.88;;;11.40;99.90;;;;;;5012887;28;20092;-72
2022/04/13 04:58:22;;;;;;;13.88;9.65;;;11.40;99.90;;;;;;4996409;28;20086;-72
2022/04/13 05:00:48;;;;;;;15.48;11.40;;;11.40;99.90;;;;;;4983033;28;20042;-71
2022/04/13 05:03:14;;;;;;;15.00;10.48;;;11.40;99.90;;;;;;4993228;28;20038;-72
2022/04/13 05:05:41;;;;;;;13.15;9.00;;;11.40;99.90;;;;;;4993006;28;20053;-72
2022/04/13 05:08:07;;;;;;;16.52;10.38;;;11.40;99.90;;;;;;4976795;28;20034;-72
2022/04/13 05:10:33;;;;;;;16.45;9.85;;;11.40;99.90;;;;;;4993075;28;20046;-71
2022/04/13 05:12:59;;;;;;;16.48;9.32;;;11.40;99.90;;;;;;4976900;28;20211;-72
2022/04/13 05:15:25;;;;;;;17.80;11.45;;;11.40;99.90;;;;;;4992926;28;20038;-72
2022/04/13 05:17:50;;;;;;;14.13;10.55;;;11.40;99.90;;;;;;4985569;28;20171;-72
2022/04/13 05:20:16;;;;;;;17.23;11.32;;;11.40;99.90;;;;;;5004068;28;20125;-71
2022/04/13 05:22:42;;;;;;;14.57;10.30;;;11.40;99.90;;;;;;5013528;28;20581;-71
2022/04/13 05:25:09;;;;;;;14.00;9.68;;;11.40;99.90;;;;;;4997391;28;20041;-71
2022/04/13 05:27:34;;;;;;;13.52;9.82;;;11.50;99.90;;;;;;5013166;28;20033;-72
2022/04/13 05:30:01;;;;;;;15.35;9.38;;;11.50;99.90;;;;;;5015417;28;20037;-72
2022/04/13 05:32:26;;;;;;;13.10;9.68;;;11.50;99.90;;;;;;5004308;28;20124;-80
2022/04/13 05:35:01;;;;;;;15.13;9.95;;;11.50;99.90;;;;;;4998709;28;20163;-80
2022/04/13 05:37:29;;;;;;;14.18;10.63;;;11.60;99.90;;;;;;4998204;28;20156;-72
2022/04/13 05:39:55;;;;;;;15.07;9.90;;;11.60;99.90;;;;;;4998644;28;20052;-72
2022/04/13 05:42:24;;;;;;;13.90;9.73;;;11.60;99.90;;;;;;4997499;28;20037;-72
2022/04/13 05:44:51;;;;;;;16.90;10.20;;;11.60;99.90;;;;;;5015662;28;20049;-72
2022/04/13 05:47:17;;;;;;;13.50;9.77;;;11.60;99.90;;;;;;4997384;28;20038;-72
2022/04/13 05:49:43;;;;;;;17.02;10.73;;;11.70;99.90;;;;;;5015052;28;20091;-72
2022/04/13 05:52:08;;;;;;;12.32;8.43;;;11.70;99.90;;;;;;5015469;28;20064;-72
2022/04/13 05:54:34;;;;;;;14.63;8.85;;;11.60;99.90;;;;;;4998634;28;20091;-72
2022/04/13 05:57:02;;;;;;;14.35;9.75;;;11.60;99.90;;;;;;5014970;28;20045;-72
2022/04/13 05:59:28;;;;;;;16.55;10.60;;;11.60;99.90;;;;;;4994053;28;20045;-72
2022/04/13 06:01:54;;;;;;;13.90;9.95;;;11.60;99.90;;;;;;4979398;28;20034;-72
2022/04/13 06:04:19;;;;;;;17.70;11.60;;;11.70;99.90;;;;;;4993559;28;20444;-72
2022/04/13 06:06:45;;;;;;;16.67;11.23;;;11.80;99.90;;;;;;4998430;28;20041;-72
2022/04/13 06:09:11;;;;;;;17.20;12.10;;;11.90;99.90;;;;;;4997700;28;20033;-72
2022/04/13 06:11:36;;;;;;;17.48;11.63;;;12.00;99.90;;;;;;4994967;28;20046;-72
2022/04/13 06:14:02;;;;;;;22.73;13.35;;;12.10;99.90;;;;;;5009241;28;20050;-72
2022/04/13 06:16:28;;;;;;;19.02;12.80;;;12.10;99.90;;;;;;5007389;28;20498;-72
2022/04/13 06:18:53;;;;;;;21.42;13.57;;;12.10;99.90;;;;;;4997613;28;20045;-72
2022/04/13 06:21:19;;;;;;;18.95;12.65;;;12.10;99.90;;;;;;4996734;28;20046;-72
2022/04/13 06:23:45;;;;;;;21.83;13.23;;;12.20;99.90;;;;;;4993807;28;20050;-76
2022/04/13 06:26:10;;;;;;;21.00;13.25;;;12.20;99.90;;;;;;4995718;28;20049;-76
2022/04/13 06:28:36;;;;;;;21.90;13.95;;;12.30;99.90;;;;;;5014868;28;20128;-76
2022/04/13 06:31:01;;;;;;;20.73;14.40;;;12.50;99.90;;;;;;4998336;28;20037;-75
2022/04/13 06:33:27;;;;;;;21.42;14.40;;;12.60;99.90;;;;;;4996273;28;20440;-72
2022/04/13 06:35:52;;;;;;;23.20;14.18;;;12.60;99.90;;;;;;4979216;28;20053;-72
2022/04/13 06:38:18;;;;;;;24.40;15.80;;;12.70;99.90;;;;;;4998337;28;20041;-72
2022/04/13 06:40:43;;;;;;;21.52;14.57;;;12.80;99.90;;;;;;5001954;28;20049;-79
2022/04/13 06:43:09;;;;;;;21.10;15.15;;;12.80;99.90;;;;;;5001540;28;20395;-73
2022/04/13 06:45:36;;;;;;;23.58;15.73;;;12.80;99.90;;;;;;5000911;28;20494;-73
2022/04/13 06:48:02;;;;;;;21.90;14.68;;;12.90;99.90;;;;;;5017412;28;20044;-79
2022/04/13 06:50:28;;;;;;;26.73;15.60;;;13.10;99.90;;;;;;4998164;28;20037;-76
2022/04/13 06:52:54;;;;;;;22.70;15.00;;;13.20;99.90;;;;;;5000971;28;20045;-73
2022/04/13 06:55:19;;;;;;;21.58;14.95;;;13.20;99.90;;;;;;5017288;28;20041;-73
2022/04/13 06:57:45;;;;;;;23.05;14.73;;;13.20;99.90;;;;;;5001471;28;20069;-73
2022/04/13 07:00:12;;;;;;;21.08;14.02;;;13.10;99.90;;;;;;4994806;28;20406;-73
2022/04/13 07:02:39;;;;;;;23.88;15.43;;;13.20;99.90;;;;;;4986708;28;20033;-73
2022/04/13 07:05:05;;;;;;;22.27;14.30;;;13.20;99.90;;;;;;5017780;28;20045;-73
2022/04/13 07:07:31;;;;;;;18.80;13.77;;;13.30;99.90;;;;;;5000587;28;20050;-74
2022/04/13 07:09:57;;;;;;;21.90;13.70;;;13.40;99.90;;;;;;5001869;28;20482;-73
2022/04/13 07:12:23;;;;;;;19.90;13.30;;;13.40;99.90;;;;;;5016691;28;20038;-74
2022/04/13 07:14:48;;;;;;;21.33;13.88;;;13.50;99.90;;;;;;5017484;28;20033;-73
2022/04/13 07:17:14;;;;;;;21.00;13.63;;;13.50;99.90;;;;;;4989654;28;20056;-74
2022/04/13 07:19:40;;;;;;;23.65;14.70;;;13.60;99.90;;;;;;4998047;28;20045;-74
2022/04/13 07:22:06;;;;;;;20.23;13.55;;;13.60;99.90;;;;;;5007096;28;20041;-73
2022/04/13 07:24:31;;;;;;;25.35;14.38;;;13.80;99.90;;;;;;5001426;28;20046;-74
2022/04/13 07:26:58;;;;;;;19.17;12.38;;;13.80;99.90;;;;;;5016515;28;20049;-73
2022/04/13 07:29:24;;;;;;;20.73;12.20;;;13.90;99.90;;;;;;5000862;28;20528;-73
2022/04/13 07:31:49;;;;;;;20.30;11.52;;;14.20;99.90;;;;;;5016664;28;20393;-74
2022/04/13 07:34:15;;;;;;;20.85;11.55;;;14.40;99.90;;;;;;5000770;28;20037;-73
2022/04/13 07:36:41;;;;;;;20.65;11.98;;;14.40;99.90;;;;;;4993611;28;20037;-74
2022/04/13 07:39:06;;;;;;;17.90;11.98;;;14.40;99.90;;;;;;4997873;28;20042;-74
2022/04/13 07:41:32;;;;;;;19.83;11.68;;;14.50;99.90;;;;;;5002060;28;20045;-74
2022/04/13 07:44:00;;;;;;;17.77;11.77;;;14.60;99.90;;;;;;5017032;28;20401;-74
2022/04/13 07:46:27;;;;;;;19.23;11.80;;;14.70;99.90;;;;;;5015879;28;20049;-74
2022/04/13 07:48:53;;;;;;;18.63;11.88;;;14.70;99.90;;;;;;5000597;28;20033;-74
2022/04/13 07:51:19;;;;;;;21.10;12.45;;;14.60;99.90;;;;;;5014613;28;20073;-74
2022/04/13 07:53:45;;;;;;;20.65;11.93;;;14.60;99.90;;;;;;5017459;28;20430;-74
2022/04/13 07:56:10;;;;;;;18.30;12.48;;;14.40;99.90;;;;;;5015792;28;20037;-74
2022/04/13 07:58:36;;;;;;;17.67;13.00;;;14.40;99.90;;;;;;5000626;28;20087;-74
2022/04/13 08:01:02;;;;;;;20.77;13.25;;;14.30;99.90;;;;;;4992879;28;20486;-74
2022/04/13 08:03:27;;;;;;;18.00;12.20;;;14.30;99.90;;;;;;4981026;28;20486;-75
2022/04/13 08:05:53;;;;;;;21.45;12.95;;;14.40;99.90;;;;;;5002716;28;20553;-74
2022/04/13 08:08:18;;;;;;;22.85;14.15;;;14.30;99.90;;;;;;4996479;28;20221;-74
2022/04/13 08:10:45;;;;;;;18.75;12.77;;;14.10;99.90;;;;;;4985479;28;20037;-74
2022/04/13 08:13:10;;;;;;;21.17;13.63;;;14.20;99.90;;;;;;4988468;28;20029;-75
2022/04/13 08:15:36;;;;;;;24.65;13.45;;;14.30;99.90;;;;;;4981732;28;20053;-74
2022/04/13 08:18:02;;;;;;;17.05;11.48;;;14.40;99.90;;;;;;4980836;28;20064;-75
2022/04/13 08:20:27;;;;;;;15.95;10.63;;;14.40;99.90;;;;;;4982152;28;20045;-74
2022/04/13 08:22:53;;;;;;;19.95;10.98;;;14.40;99.90;;;;;;5016511;28;20119;-74
2022/04/13 08:25:18;;;;;;;17.40;11.02;;;14.40;99.90;;;;;;5015512;28;20100;-75
2022/04/13 08:27:44;;;;;;;19.45;11.57;;;14.40;99.90;;;;;;5015603;28;20545;-75
2022/04/13 08:30:11;;;;;;;17.25;10.98;;;14.50;99.90;;;;;;4999095;28;20040;-75
2022/04/13 08:32:37;;;;;;;26.83;20.48;;;14.50;99.90;;;;;;4999814;28;20038;-75
2022/04/13 08:35:05;;;;;;;45.92;30.75;;;14.60;99.90;;;;;;5015322;28;20608;-75
2022/04/13 08:37:32;;;;;;;26.33;17.85;;;14.60;99.90;;;;;;5016422;28;20041;-75
2022/04/13 08:39:57;;;;;;;24.63;13.43;;;14.70;99.90;;;;;;5014991;28;20082;-75
2022/04/13 08:42:27;;;;;;;27.88;19.70;;;14.70;99.90;;;;;;4999200;28;20045;-75
2022/04/13 08:44:53;;;;;;;16.67;9.30;;;14.90;99.90;;;;;;5013983;28;20037;-74
2022/04/13 08:47:23;;;;;;;15.57;8.50;;;15.00;99.90;;;;;;5014866;28;20049;-74
2022/04/13 08:49:51;;;;;;;13.18;7.90;;;15.40;99.90;;;;;;5014710;28;20461;-80
2022/04/13 08:52:28;;;;;;;13.40;7.57;;;15.40;99.90;;;;;;5014056;28;20124;-75
2022/04/13 08:55:01;;;;;;;15.50;8.48;;;15.40;99.90;;;;;;4980472;28;20106;-74
2022/04/13 08:57:29;;;;;;;13.75;7.43;;;15.40;99.90;;;;;;4982250;28;20118;-74
2022/04/13 09:00:14;;;;;;;16.00;8.70;;;15.40;99.90;;;;;;5013876;28;20042;-74
2022/04/13 09:02:43;;;;;;;17.00;6.95;;;15.50;99.90;;;;;;5014696;28;20045;-74
2022/04/13 09:05:14;;;;;;;13.20;7.20;;;15.80;99.90;;;;;;5016089;28;20132;-74
2022/04/13 09:07:41;;;;;;;11.88;6.82;;;15.80;99.90;;;;;;5013500;28;20044;-73
2022/04/13 09:10:11;;;;;;;14.50;7.40;;;15.60;99.90;;;;;;5013751;28;20034;-74
2022/04/13 09:12:38;;;;;;;15.55;7.53;;;15.50;99.90;;;;;;5001587;28;21579;-74
2022/04/13 09:15:05;;;;;;;14.23;7.40;;;15.50;99.90;;;;;;5015599;28;20390;-74
2022/04/13 09:17:31;;;;;;;10.52;6.60;;;15.60;99.90;;;;;;5013672;28;20042;-74
2022/04/13 09:19:58;;;;;;;13.27;6.45;;;15.70;99.90;;;;;;4998362;28;20045;-74
2022/04/13 09:22:24;;;;;;;11.40;6.65;;;15.80;99.90;;;;;;5014979;28;20041;-74
2022/04/13 09:24:51;;;;;;;14.70;7.30;;;16.00;99.90;;;;;;5015258;28;20513;-74
2022/04/13 09:27:18;;;;;;;13.73;7.72;;;16.00;99.90;;;;;;5014364;28;20042;-73
2022/04/13 09:29:44;;;;;;;12.48;5.95;;;16.10;99.90;;;;;;5012284;28;20040;-77
2022/04/13 09:32:10;;;;;;;12.15;5.50;;;16.30;99.90;;;;;;4998064;28;20041;-76
2022/04/13 09:34:35;;;;;;;11.70;6.25;;;16.60;99.90;;;;;;5014345;28;20038;-75
2022/04/13 09:37:01;;;;;;;11.30;4.72;;;16.50;99.90;;;;;;4997576;28;20087;-76
2022/04/13 09:39:27;;;;;;;10.63;5.22;;;16.70;99.90;;;;;;4988295;28;20045;-75
2022/04/13 09:41:53;;;;;;;13.13;4.90;;;16.70;99.90;;;;;;4998935;28;20041;-76
2022/04/13 09:44:19;;;;;;;11.23;5.35;;;16.90;99.90;;;;;;4996995;28;20371;-76
2022/04/13 09:46:45;;;;;;;14.02;6.05;;;16.80;99.90;;;;;;4993725;28;20460;-76
2022/04/13 09:49:12;;;;;;;10.82;5.38;;;16.80;99.90;;;;;;5005050;28;20072;-75
2022/04/13 09:51:38;;;;;;;9.90;5.07;;;16.90;99.90;;;;;;5012281;28;20030;-76
2022/04/13 09:54:12;;;;;;;10.02;3.95;;;16.90;99.90;;;;;;5015205;28;20045;-76
2022/04/13 09:56:43;;;;;;;7.72;4.15;;;17.10;99.90;;;;;;4998158;28;20131;-74
2022/04/13 09:59:10;;;;;;;11.15;4.13;;;17.30;99.90;;;;;;4988327;28;20038;-73
2022/04/13 10:01:36;;;;;;;10.18;4.93;;;17.30;99.90;;;;;;4998506;28;20126;-79
2022/04/13 10:04:03;;;;;;;8.65;3.72;;;17.30;99.90;;;;;;5014546;28;20033;-78
2022/04/13 10:06:35;;;;;;;10.55;5.20;;;17.40;99.90;;;;;;4997420;28;20137;-75
2022/04/13 10:09:06;;;;;;;10.57;4.50;;;17.50;99.90;;;;;;5013792;28;20052;-77
2022/04/13 10:11:32;;;;;;;9.93;4.63;;;17.40;99.90;;;;;;5014392;28;20431;-76
2022/04/13 10:14:06;;;;;;;11.38;5.13;;;17.50;99.90;;;;;;5000222;28;20039;-76
2022/04/13 10:16:34;;;;;;;11.75;5.65;;;17.60;99.90;;;;;;5018613;28;20045;-76
2022/04/13 10:19:01;;;;;;;10.63;5.60;;;17.70;99.90;;;;;;5017071;28;20052;-76
2022/04/13 10:21:47;;;;;;;9.20;4.10;;;17.70;99.90;;;;;;5002078;28;20037;-76
2022/04/13 10:24:23;;;;;;;11.05;4.90;;;17.70;99.90;;;;;;5000937;28;20520;-80
2022/04/13 10:27:08;;;;;;;10.95;3.97;;;17.80;99.90;;;;;;5018912;28;20045;-79
2022/04/13 10:29:54;;;;;;;10.68;4.28;;;17.90;99.90;;;;;;5017584;28;20049;-78
2022/04/13 10:32:24;;;;;;;12.25;5.22;;;18.10;99.90;;;;;;5017792;28;20049;-79
2022/04/13 10:34:55;;;;;;;10.73;4.50;;;18.20;99.90;;;;;;5017231;28;20051;-79
2022/04/13 10:37:23;;;;;;;10.88;5.15;;;18.20;99.90;;;;;;5018638;28;20042;-78
2022/04/13 10:39:49;;;;;;;7.65;3.75;;;18.30;99.90;;;;;;5000616;28;20049;-78
2022/04/13 10:42:20;;;;;;;9.50;4.88;;;18.20;99.90;;;;;;5001931;28;20060;-78
2022/04/13 10:45:03;;;;;;;10.05;4.88;;;18.40;99.90;;;;;;5001667;28;20041;-78
2022/04/13 10:47:54;;;;;;;10.73;3.75;;;18.20;99.90;;;;;;4999622;28;20065;-78
2022/04/13 10:50:30;;;;;;;11.65;4.85;;;18.40;99.90;;;;;;5000139;28;20494;-78
2022/04/13 10:53:02;;;;;;;9.07;4.20;;;18.20;99.90;;;;;;5001300;28;20030;-78
2022/04/13 10:55:30;;;;;;;8.77;4.13;;;18.40;99.90;;;;;;5001733;28;20197;-79
2022/04/13 10:58:35;;;;;;;10.00;4.10;;;18.30;99.90;;;;;;5016847;28;20095;-78
2022/04/13 11:01:04;;;;;;;9.00;4.82;;;18.30;99.90;;;;;;5017997;28;20124;-78
2022/04/13 11:03:34;;;;;;;16.05;9.98;;;18.50;99.90;;;;;;5000928;28;20041;-78
2022/04/13 11:06:02;;;;;;;39.17;28.83;;;18.40;99.90;;;;;;5018450;28;20398;-78
2022/04/13 11:08:44;;;;;;;11.77;5.35;;;18.20;99.90;;;;;;5016847;28;20478;-78
2022/04/13 11:11:17;;;;;;;13.82;7.63;;;18.30;99.90;;;;;;5013418;28;20429;-77
2022/04/13 11:13:48;;;;;;;11.48;4.70;;;18.40;99.90;;;;;;4990769;28;20037;-78
2022/04/13 11:16:15;;;;;;;8.70;4.10;;;18.20;99.90;;;;;;5001264;28;20073;-79
2022/04/13 11:18:42;;;;;;;8.75;4.30;;;18.10;99.90;;;;;;5000341;28;20557;-78
2022/04/13 11:21:09;;;;;;;8.07;3.78;;;18.30;99.90;;;;;;5001631;28;20477;-78
2022/04/13 11:23:50;;;;;;;10.48;4.03;;;18.20;99.90;;;;;;4995874;28;20058;-78
2022/04/13 11:26:27;;;;;;;7.85;3.70;;;18.10;99.90;;;;;;5011844;28;20054;-78
2022/04/13 11:29:16;;;;;;;7.88;3.00;;;18.00;99.90;;;;;;4994090;28;20638;-78
2022/04/13 11:32:00;;;;;;;7.70;3.08;;;18.00;99.90;;;;;;4994361;28;20066;-78
2022/04/13 11:34:30;;;;;;;8.05;3.50;;;18.10;99.90;;;;;;5009049;28;20059;-78
2022/04/13 11:37:00;;;;;;;6.78;2.90;;;18.00;99.90;;;;;;4996490;28;20604;-75
2022/04/13 11:39:45;;;;;;;9.23;3.50;;;18.00;99.90;;;;;;5012191;28;20033;-75
2022/04/13 11:42:25;;;;;;;8.05;4.13;;;18.10;99.90;;;;;;5010017;28;20042;-76
2022/04/13 11:45:15;;;;;;;9.57;3.60;;;18.10;99.90;;;;;;4996476;28;20133;-75
2022/04/13 11:47:51;;;;;;;9.65;3.38;;;18.10;99.90;;;;;;4988309;28;20092;-75
2022/04/13 11:50:17;;;;;;;10.40;2.83;;;18.10;99.90;;;;;;5013008;28;20065;-75
2022/04/13 11:53:03;;;;;;;5.57;2.38;;;18.00;99.90;;;;;;5013455;28;20497;-75
2022/04/13 11:55:37;;;;;;;7.93;2.65;;;17.90;99.90;;;;;;5012496;28;20073;-75
2022/04/13 11:58:09;;;;;;;8.57;2.72;;;17.70;99.90;;;;;;5013590;28;20390;-75
2022/04/13 12:00:54;;;;;;;9.00;2.28;;;17.60;99.90;;;;;;5011318;28;20049;-75
2022/04/13 12:03:31;;;;;;;7.07;2.60;;;17.60;99.90;;;;;;4996830;28;20122;-75
2022/04/13 12:06:19;;;;;;;7.45;2.88;;;17.40;99.90;;;;;;4996320;28;20131;-75
2022/04/13 12:09:02;;;;;;;7.43;2.40;;;17.50;99.90;;;;;;4996459;28;20034;-75
2022/04/13 12:11:39;;;;;;;8.85;3.83;;;17.60;99.90;;;;;;5001939;28;20115;-75
2022/04/13 12:14:05;;;;;;;13.88;5.13;;;17.40;99.90;;;;;;4993571;28;20042;-75
2022/04/13 12:16:33;;;;;;;13.43;5.13;;;17.60;99.90;;;;;;4977043;28;20042;-74
2022/04/13 12:19:10;;;;;;;12.68;6.05;;;17.70;99.90;;;;;;5013068;28;20545;-75
2022/04/13 12:21:38;;;;;;;13.55;7.18;;;17.70;99.90;;;;;;4996213;28;20067;-75
2022/04/13 12:24:08;;;;;;;12.77;8.38;;;17.90;99.90;;;;;;4996473;28;20430;-75
2022/04/13 12:26:39;;;;;;;11.63;5.53;;;17.60;99.90;;;;;;5012330;28;20049;-74
2022/04/13 12:29:22;;;;;;;8.02;3.72;;;17.70;99.90;;;;;;4996131;28;20045;-74
2022/04/13 12:31:51;;;;;;;10.63;3.80;;;17.60;99.90;;;;;;4995755;28;20030;-75
2022/04/13 12:34:17;;;;;;;9.38;2.70;;;17.50;99.90;;;;;;5010893;28;20037;-75
2022/04/13 12:36:49;;;;;;;7.40;1.80;;;17.40;99.90;;;;;;4996746;28;20045;-75
2022/04/13 12:39:14;;;;;;;7.43;1.90;;;17.30;99.90;;;;;;5012074;28;20059;-74